Time;durP1;ratioP1;P1;durP2;ratioP2;P2;SDS_P1;SDS_P2;PMS_P1;PMS_P2;Temp;Humidity;BMP_temperature;BMP_pressure;BME280_temperature;BME280_humidity;BME280_pressure;Samples;Min_cycle;Max_cycle;Signal;HPM_P1;HPM_P2
2021/08/26 00:07:29;;;;;;;5.45;4.18;;;;;;;16.34;89.57;101706.75;5073911;28;20113;-36
2021/08/26 00:09:54;;;;;;;6.03;4.20;;;;;;;16.36;90.08;101700.00;5074610;28;20442;-35
2021/08/26 00:12:20;;;;;;;4.55;4.03;;;;;;;16.32;89.89;101693.38;5074321;28;20258;-36
2021/08/26 00:14:46;;;;;;;6.75;4.72;;;;;;;16.31;89.79;101691.72;5074151;28;20028;-36
2021/08/26 00:17:11;;;;;;;;;;;;;;;16.42;87.97;101692.69;5075122;28;20089;-36
2021/08/26 00:19:38;;;;;;;4.93;3.77;;;;;;;16.18;90.12;101678.41;5072531;28;19908;-36
2021/08/26 00:22:04;;;;;;;6.53;4.10;;;;;;;16.23;90.17;101676.56;5073758;28;20338;-34
2021/08/26 00:24:29;;;;;;;7.47;3.75;;;;;;;16.32;89.94;101684.34;5074350;28;20151;-36
2021/08/26 00:26:54;;;;;;;6.65;3.70;;;;;;;16.22;90.29;101677.66;5074585;28;20028;-36
2021/08/26 00:29:20;;;;;;;5.90;3.43;;;;;;;16.41;89.46;101686.41;5073943;28;20031;-36
2021/08/26 00:31:45;;;;;;;5.97;4.13;;;;;;;16.38;89.44;101677.91;5074158;28;20332;-35
2021/08/26 00:34:11;;;;;;;5.28;3.65;;;;;;;16.42;89.08;101687.25;5072826;28;20031;-35
2021/08/26 00:36:36;;;;;;;7.43;3.80;;;;;;;16.41;89.62;101680.13;5074093;28;20021;-35
2021/08/26 00:39:01;;;;;;;;;;;;;;;16.49;87.68;101671.50;5074456;28;20101;-35
2021/08/26 00:41:26;;;;;;;8.37;4.10;;;;;;;16.36;89.22;101658.22;5074081;28;19908;-35
2021/08/26 00:43:52;;;;;;;4.97;3.53;;;;;;;16.35;89.26;101665.59;5073709;28;20354;-35
2021/08/26 00:46:17;;;;;;;4.50;2.90;;;;;;;16.32;89.43;101657.88;5073615;28;20028;-35
2021/08/26 00:48:49;;;;;;;4.30;2.90;;;;;;;16.27;90.09;101665.19;5073508;28;20456;-35
2021/08/26 00:51:15;;;;;;;4.25;2.70;;;;;;;16.26;89.65;101652.63;5074263;28;20400;-35
2021/08/26 00:53:42;;;;;;;4.18;2.85;;;;;;;16.26;89.53;101656.16;5073181;28;20115;-35
2021/08/26 00:56:11;;;;;;;;;;;;;;;16.35;87.99;101665.59;5073962;28;20031;-35
2021/08/26 00:58:37;;;;;;;3.92;2.53;;;;;;;16.23;89.23;101668.38;5073088;28;20348;-35
2021/08/26 01:01:04;;;;;;;4.13;3.10;;;;;;;16.28;89.88;101669.56;5073633;28;20107;-35
2021/08/26 01:03:43;;;;;;;4.95;2.40;;;;;;;16.18;89.94;101660.13;5072996;28;20016;-35
2021/08/26 01:06:16;;;;;;;3.92;2.35;;;;;;;16.19;89.91;101671.88;5074016;28;20029;-35
2021/08/26 01:08:53;;;;;;;6.93;2.40;;;;;;;16.19;89.99;101656.31;5073653;28;20048;-35
2021/08/26 01:11:22;;;;;;;3.42;2.30;;;;;;;16.08;90.22;101646.31;5073672;28;20025;-35
2021/08/26 01:13:51;;;;;;;3.10;2.50;;;;;;;16.12;90.12;101643.94;5073119;28;20032;-35
2021/08/26 01:16:16;;;;;;;3.72;2.42;;;;;;;16.18;89.97;101646.47;5073258;28;20024;-35
2021/08/26 01:18:44;;;;;;;3.97;2.30;;;;;;;16.18;89.87;101637.47;5073227;28;20028;-35
2021/08/26 01:21:12;;;;;;;5.78;2.95;;;;;;;16.13;89.65;101651.03;5073177;28;20025;-35
2021/08/26 01:23:42;;;;;;;3.65;2.30;;;;;;;16.00;89.65;101618.63;5073300;28;20107;-35
2021/08/26 01:26:09;;;;;;;3.00;2.30;;;;;;;16.13;89.64;101640.94;5073210;28;20074;-35
2021/08/26 01:28:37;;;;;;;3.67;2.15;;;;;;;16.05;89.61;101638.63;5072649;28;20033;-35
2021/08/26 01:31:03;;;;;;;2.53;1.90;;;;;;;16.14;89.51;101631.69;5072866;28;20044;-35
2021/08/26 01:33:28;;;;;;;;;;;;;;;16.20;87.91;101636.16;5073095;28;20021;-35
2021/08/26 01:35:54;;;;;;;3.25;1.98;;;;;;;16.01;88.88;101647.56;5073036;28;19927;-35
2021/08/26 01:38:23;;;;;;;3.55;2.30;;;;;;;15.98;89.07;101646.16;5072980;28;20078;-35
2021/08/26 01:40:49;;;;;;;5.13;2.28;;;;;;;15.96;88.79;101624.59;5072666;28;20036;-35
2021/08/26 01:43:16;;;;;;;6.38;1.92;;;;;;;15.95;88.28;101620.19;5072507;28;20029;-35
2021/08/26 01:45:48;;;;;;;6.43;1.98;;;;;;;15.96;88.24;101623.78;5072548;28;20035;-35
2021/08/26 01:48:17;;;;;;;4.63;2.28;;;;;;;15.88;88.25;101635.91;5072745;28;20025;-35
2021/08/26 01:50:44;;;;;;;5.30;1.75;;;;;;;15.85;87.60;101639.13;5072745;28;20368;-35
2021/08/26 01:53:10;;;;;;;6.25;2.20;;;;;;;15.85;87.95;101627.38;5073173;28;20086;-35
2021/08/26 01:55:36;;;;;;;5.65;2.20;;;;;;;15.82;86.69;101626.00;5072778;28;20028;-35
2021/08/26 01:58:02;;;;;;;7.15;2.35;;;;;;;15.81;85.75;101598.94;5072709;28;20052;-35
2021/08/26 02:00:27;;;;;;;;;;;;;;;15.92;85.66;101622.59;5073012;28;20021;-35
2021/08/26 02:02:52;;;;;;;5.30;2.10;;;;;;;15.78;85.29;101619.38;5073356;28;19911;-35
2021/08/26 02:05:18;;;;;;;3.05;1.80;;;;;;;15.85;84.98;101616.47;5072971;28;20105;-35
2021/08/26 02:07:45;;;;;;;10.02;2.22;;;;;;;15.85;85.27;101616.47;5072673;28;20037;-35
2021/08/26 02:10:11;;;;;;;5.85;2.28;;;;;;;15.78;84.20;101613.09;5072570;28;20025;-35
2021/08/26 02:12:36;;;;;;;5.63;2.15;;;;;;;15.81;84.88;101623.50;5073054;28;20352;-35
2021/08/26 02:15:02;;;;;;;6.07;2.03;;;;;;;15.86;84.85;101615.38;5072720;28;20027;-36
2021/08/26 02:17:27;;;;;;;6.07;2.38;;;;;;;15.78;84.65;101594.00;5073277;28;20354;-36
2021/08/26 02:19:52;;;;;;;5.93;1.87;;;;;;;15.82;84.40;101606.06;5072541;28;20452;-36
2021/08/26 02:22:18;;;;;;;6.97;2.00;;;;;;;15.83;84.47;101616.72;5072488;28;20337;-36
2021/08/26 02:24:43;;;;;;;7.17;2.10;;;;;;;15.87;84.22;101619.78;5072207;28;20761;-36
2021/08/26 02:27:08;;;;;;;6.67;1.90;;;;;;;15.82;84.33;101616.97;5072831;28;20611;-36
2021/08/26 02:29:33;;;;;;;;;;;;;;;15.96;84.18;101618.31;5073088;28;20036;-36
2021/08/26 02:31:59;;;;;;;6.47;2.47;;;;;;;15.86;83.93;101612.66;5076511;28;20409;-36
2021/08/26 02:34:24;;;;;;;5.93;1.77;;;;;;;15.99;83.95;101614.25;5076316;28;20788;-36
2021/08/26 02:36:49;;;;;;;;;;;;;;;16.03;83.49;101613.50;5076631;28;20472;-36
2021/08/26 02:39:15;;;;;;;5.43;2.00;;;;;;;15.93;83.90;101614.16;5076058;28;19908;-36
2021/08/26 02:41:40;;;;;;;6.27;2.00;;;;;;;15.90;84.35;101605.66;5076617;28;20255;-36
2021/08/26 02:44:06;;;;;;;6.57;2.03;;;;;;;15.87;84.02;101595.25;5075570;28;20263;-36
2021/08/26 02:46:31;;;;;;;5.63;2.10;;;;;;;15.92;84.51;101612.53;5076288;28;20033;-36
2021/08/26 02:48:56;;;;;;;6.70;1.90;;;;;;;15.89;84.22;101612.19;5075764;28;20025;-36
2021/08/26 02:51:22;;;;;;;6.05;2.45;;;;;;;15.84;84.25;101599.28;5076438;28;20024;-36
2021/08/26 02:53:47;;;;;;;;;;;;;;;15.96;84.08;101607.41;5075963;28;20054;-36
2021/08/26 02:56:12;;;;;;;6.90;2.17;;;;;;;15.76;85.26;101598.84;5075598;28;19935;-36
2021/08/26 02:58:38;;;;;;;;;;;;;;;15.91;84.18;101610.88;5076063;28;20107;-36
2021/08/26 03:01:03;;;;;;;6.70;2.37;;;;;;;15.79;83.41;101612.00;5075714;28;19904;-36
2021/08/26 03:03:28;;;;;;;6.97;2.63;;;;;;;15.75;83.24;101610.84;5075845;28;20302;-36
2021/08/26 03:05:54;;;;;;;9.88;2.47;;;;;;;15.73;83.23;101616.56;5076033;28;20111;-36
2021/08/26 03:08:19;;;;;;;8.17;2.60;;;;;;;15.71;82.90;101607.78;5075842;28;20051;-36
2021/08/26 03:10:45;;;;;;;9.63;2.70;;;;;;;15.55;82.08;101592.22;5075615;28;20699;-36
2021/08/26 03:13:10;;;;;;;12.82;3.10;;;;;;;15.69;82.06;101610.75;5075486;28;20375;-36
2021/08/26 03:15:35;;;;;;;9.68;2.80;;;;;;;15.69;81.68;101615.38;5075362;28;20051;-36
2021/08/26 03:18:01;;;;;;;9.63;3.03;;;;;;;15.67;81.72;101612.09;5075209;28;20024;-36
2021/08/26 03:20:26;;;;;;;10.40;2.95;;;;;;;15.63;79.45;101609.03;5075657;28;20070;-36
2021/08/26 03:22:53;;;;;;;9.77;2.50;;;;;;;15.54;79.10;101599.56;5075282;28;20029;-35
2021/08/26 03:25:18;;;;;;;;;;;;;;;15.63;78.13;101608.19;5075709;28;20027;-36
2021/08/26 03:27:43;;;;;;;11.23;3.13;;;;;;;15.54;75.43;101610.47;5075457;28;19904;-36
2021/08/26 03:30:09;;;;;;;11.98;3.58;;;;;;;15.51;75.38;101616.41;5075131;28;20028;-36
2021/08/26 03:32:35;;;;;;;13.90;3.40;;;;;;;15.46;75.87;101605.41;5075250;28;20024;-36
2021/08/26 03:35:00;;;;;;;9.10;3.00;;;;;;;15.45;75.87;101607.31;5075103;28;20072;-36
2021/08/26 03:37:26;;;;;;;10.48;3.28;;;;;;;15.50;75.21;101609.31;5074788;28;20380;-36
2021/08/26 03:39:51;;;;;;;14.77;2.97;;;;;;;15.51;74.94;101613.66;5075716;28;20031;-36
2021/08/26 03:42:17;;;;;;;9.43;2.83;;;;;;;15.37;75.07;101604.16;5073688;28;20050;-36
2021/08/26 03:44:42;;;;;;;12.90;3.88;;;;;;;15.36;74.32;101608.78;5074698;28;20350;-36
2021/08/26 03:47:08;;;;;;;9.93;3.25;;;;;;;15.46;75.02;101619.84;5074765;28;20445;-36
2021/08/26 03:49:34;;;;;;;10.75;2.85;;;;;;;15.46;74.31;101625.31;5074819;28;20051;-36
2021/08/26 03:52:00;;;;;;;9.05;2.90;;;;;;;15.39;74.82;101607.47;5075457;28;20121;-36
2021/08/26 03:54:25;;;;;;;12.40;2.92;;;;;;;15.49;73.81;101621.28;5074839;28;20080;-36
2021/08/26 03:56:50;;;;;;;12.63;2.83;;;;;;;15.48;73.72;101619.63;5073596;28;20051;-36
2021/08/26 03:59:17;;;;;;;11.97;3.53;;;;;;;15.44;72.97;101602.09;5074430;28;20302;-36
2021/08/26 04:01:42;;;;;;;12.70;3.10;;;;;;;15.50;73.97;101605.75;5074819;28;20289;-36
2021/08/26 04:04:08;;;;;;;10.73;3.63;;;;;;;15.50;73.46;101606.56;5074643;28;20388;-36
2021/08/26 04:06:33;;;;;;;10.83;2.80;;;;;;;15.43;73.84;101606.75;5075179;28;20291;-36
2021/08/26 04:08:58;;;;;;;;;;;;;;;15.55;73.14;101606.66;5075276;28;20120;-36
2021/08/26 04:11:24;;;;;;;11.47;3.17;;;;;;;15.40;72.42;101590.88;5074760;28;19939;-36
2021/08/26 04:13:50;;;;;;;13.73;2.80;;;;;;;15.46;73.05;101602.69;5074974;28;20109;-36
2021/08/26 04:16:15;;;;;;;9.15;3.10;;;;;;;15.39;72.52;101586.50;5074422;28;20447;-36
2021/08/26 04:18:41;;;;;;;8.60;2.58;;;;;;;15.38;72.97;101590.28;5073937;28;20099;-35
2021/08/26 04:21:06;;;;;;;8.57;2.95;;;;;;;15.44;71.85;101600.22;5074644;28;20020;-36
2021/08/26 04:23:32;;;;;;;10.15;2.63;;;;;;;15.38;71.77;101595.75;5074146;28;20028;-35
2021/08/26 04:25:57;;;;;;;10.30;2.90;;;;;;;15.39;72.40;101607.47;5073781;28;20035;-36
2021/08/26 04:28:22;;;;;;;11.25;3.10;;;;;;;15.34;72.74;101600.03;5074387;28;20263;-35
2021/08/26 04:30:48;;;;;;;12.33;3.43;;;;;;;15.34;72.76;101607.38;5073903;28;20024;-36
2021/08/26 04:33:13;;;;;;;17.20;4.90;;;;;;;15.37;72.59;101605.00;5073823;28;20063;-36
2021/08/26 04:35:38;;;;;;;13.57;3.33;;;;;;;15.34;73.53;101596.47;5074374;28;20020;-36
2021/08/26 04:38:04;;;;;;;8.50;2.97;;;;;;;15.37;73.35;101577.75;5072621;28;20062;-36
2021/08/26 04:40:29;;;;;;;10.38;3.00;;;;;;;15.31;73.78;101580.59;5074286;28;20267;-36
2021/08/26 04:42:54;;;;;;;11.75;3.25;;;;;;;15.35;74.20;101582.59;5073757;28;20028;-36
2021/08/26 04:45:20;;;;;;;12.80;3.28;;;;;;;15.34;74.11;101594.56;5073888;28;20028;-36
2021/08/26 04:47:45;;;;;;;14.73;3.40;;;;;;;15.26;74.23;101592.22;5074349;28;20024;-36
2021/08/26 04:50:11;;;;;;;10.43;3.05;;;;;;;15.29;74.51;101596.38;5073251;28;20017;-35
2021/08/26 04:52:37;;;;;;;13.02;4.10;;;;;;;15.26;74.89;101596.84;5073739;28;20066;-36
2021/08/26 04:55:02;;;;;;;14.07;3.30;;;;;;;15.28;74.71;101595.56;5072234;28;20062;-36
2021/08/26 04:57:28;;;;;;;9.35;3.20;;;;;;;15.26;74.87;101586.78;5074163;28;20027;-36
2021/08/26 04:59:53;;;;;;;13.60;3.53;;;;;;;15.28;74.85;101589.28;5073021;28;20039;-36
2021/08/26 05:02:18;;;;;;;12.27;3.20;;;;;;;15.31;75.51;101586.88;5073425;28;20023;-35
2021/08/26 05:04:44;;;;;;;10.35;3.30;;;;;;;15.26;75.02;101585.97;5073292;28;20127;-35
2021/08/26 05:07:09;;;;;;;11.80;3.87;;;;;;;15.30;75.37;101589.84;5073211;28;20503;-35
2021/08/26 05:09:34;;;;;;;11.68;3.72;;;;;;;15.27;75.34;101582.97;5072808;28;20028;-35
2021/08/26 05:12:03;;;;;;;11.70;2.95;;;;;;;15.28;75.65;101589.28;5073134;28;20111;-35
2021/08/26 05:14:28;;;;;;;11.50;3.42;;;;;;;15.19;74.91;101581.50;5073329;28;20028;-35
2021/08/26 05:16:54;;;;;;;11.93;3.47;;;;;;;15.31;75.54;101588.78;5073160;28;20027;-35
2021/08/26 05:19:19;;;;;;;10.85;3.00;;;;;;;15.27;75.17;101590.34;5072740;28;20028;-35
2021/08/26 05:21:45;;;;;;;12.25;3.72;;;;;;;15.31;75.23;101591.50;5071799;28;20134;-35
2021/08/26 05:24:10;;;;;;;12.63;3.35;;;;;;;15.37;75.17;101576.88;5073279;28;20028;-35
2021/08/26 05:26:35;;;;;;;17.17;3.90;;;;;;;15.18;75.38;101557.22;5073335;28;20029;-35
2021/08/26 05:29:01;;;;;;;11.90;3.27;;;;;;;15.36;75.55;101586.16;5072909;28;20766;-35
2021/08/26 05:31:26;;;;;;;16.93;3.80;;;;;;;15.36;75.00;101575.25;5073033;28;20261;-35
2021/08/26 05:33:51;;;;;;;16.30;3.70;;;;;;;15.23;75.86;101565.50;5072675;28;20281;-35
2021/08/26 05:36:17;;;;;;;11.52;3.25;;;;;;;15.36;75.08;101586.97;5073198;28;20469;-35
2021/08/26 05:38:42;;;;;;;13.90;3.33;;;;;;;15.44;74.79;101593.94;5072846;28;20029;-35
2021/08/26 05:41:08;;;;;;;13.85;3.53;;;;;;;15.28;74.98;101562.03;5073459;28;20021;-35
2021/08/26 05:43:33;;;;;;;17.05;3.83;;;;;;;15.30;75.17;101576.22;5073093;28;20020;-35
2021/08/26 05:45:58;;;;;;;12.60;3.83;;;;;;;15.39;75.20;101583.75;5072837;28;20474;-35
2021/08/26 05:48:24;;;;;;;9.77;2.53;;;;;;;15.45;73.85;101584.69;5072529;28;20017;-35
2021/08/26 05:50:49;;;;;;;17.73;3.93;;;;;;;15.38;74.08;101564.94;5072722;28;20333;-35
2021/08/26 05:53:14;;;;;;;15.65;4.00;;;;;;;15.45;73.46;101582.78;5071306;28;20089;-36
2021/08/26 05:55:40;;;;;;;15.70;3.20;;;;;;;15.46;72.91;101580.88;5073305;28;20047;-35
2021/08/26 05:58:05;;;;;;;12.15;2.47;;;;;;;15.49;72.79;101579.56;5072656;28;20043;-35
2021/08/26 06:00:30;;;;;;;13.47;3.13;;;;;;;15.48;72.25;101562.41;5072806;28;20443;-35
2021/08/26 06:02:56;;;;;;;10.63;2.97;;;;;;;15.55;72.44;101571.22;5073256;28;20591;-35
2021/08/26 06:05:21;;;;;;;12.00;2.90;;;;;;;15.55;72.25;101573.94;5074824;28;20239;-35
2021/08/26 06:07:47;;;;;;;13.57;2.78;;;;;;;15.55;71.89;101584.84;5076571;28;20341;-35
2021/08/26 06:10:13;;;;;;;11.95;2.75;;;;;;;15.58;71.97;101581.66;5076760;28;20024;-35
2021/08/26 06:12:40;;;;;;;9.43;2.80;;;;;;;15.63;71.84;101580.91;5076661;28;20029;-35
2021/08/26 06:15:06;;;;;;;10.85;2.85;;;;;;;15.53;71.51;101554.31;5076910;28;20483;-35
2021/08/26 06:17:32;;;;;;;11.05;2.90;;;;;;;15.64;72.07;101568.97;5076493;28;20103;-35
2021/08/26 06:19:58;;;;;;;9.98;3.00;;;;;;;15.73;72.11;101578.38;5076539;28;20112;-35
2021/08/26 06:22:23;;;;;;;10.45;2.85;;;;;;;15.64;72.27;101571.69;5076735;28;20024;-35
2021/08/26 06:24:48;;;;;;;8.97;2.83;;;;;;;15.75;72.76;101587.13;5076452;28;20099;-35
2021/08/26 06:27:14;;;;;;;11.73;3.27;;;;;;;15.75;71.56;101578.94;5076659;28;20262;-35
2021/08/26 06:29:39;;;;;;;;;;;;;;;15.90;72.61;101581.09;5076595;28;20056;-35
2021/08/26 06:32:04;;;;;;;8.63;3.17;;;;;;;15.89;71.82;101584.91;5076560;28;19916;-35
2021/08/26 06:34:30;;;;;;;12.80;3.22;;;;;;;15.91;71.69;101577.31;5075968;28;20047;-35
2021/08/26 06:36:55;;;;;;;14.38;3.30;;;;;;;15.89;71.76;101580.28;5076118;28;20025;-35
2021/08/26 06:39:20;;;;;;;13.40;3.55;;;;;;;15.99;71.73;101581.50;5076519;28;20104;-35
2021/08/26 06:41:46;;;;;;;10.97;3.20;;;;;;;16.05;72.46;101584.06;5076265;28;20279;-35
2021/08/26 06:44:11;;;;;;;8.90;2.88;;;;;;;16.05;72.49;101573.16;5075657;28;20052;-35
2021/08/26 06:46:36;;;;;;;10.80;2.70;;;;;;;16.07;72.35;101570.19;5075989;28;20035;-35
2021/08/26 06:49:02;;;;;;;14.37;3.40;;;;;;;16.11;72.74;101583.09;5075512;28;20314;-35
2021/08/26 06:51:27;;;;;;;12.23;4.30;;;;;;;16.14;72.78;101581.75;5075853;28;20251;-35
2021/08/26 06:53:53;;;;;;;13.63;3.85;;;;;;;16.09;72.46;101587.13;5075822;28;20024;-35
2021/08/26 06:56:18;;;;;;;11.43;3.13;;;;;;;16.08;73.66;101574.56;5076388;28;20017;-35
2021/08/26 06:58:44;;;;;;;13.95;3.05;;;;;;;16.18;72.52;101586.44;5076005;28;20589;-35
2021/08/26 07:01:09;;;;;;;14.10;3.22;;;;;;;16.07;72.82;101572.91;5075923;28;20067;-35
2021/08/26 07:03:34;;;;;;;;;;;;;;;16.27;73.07;101592.31;5076091;28;20355;-35
2021/08/26 07:06:00;;;;;;;10.60;3.20;;;;;;;16.25;72.69;101590.91;5075725;28;19908;-35
2021/08/26 07:08:25;;;;;;;9.73;2.85;;;;;;;16.23;72.12;101593.88;5075330;28;20283;-35
2021/08/26 07:10:51;;;;;;;11.23;2.87;;;;;;;16.13;71.84;101580.91;5075690;28;20460;-35
2021/08/26 07:13:16;;;;;;;;;;;;;;;16.34;72.22;101592.94;5075948;28;20028;-35
2021/08/26 07:15:42;;;;;;;9.70;2.55;;;;;;;16.28;71.58;101599.41;5075519;28;19916;-35
2021/08/26 07:18:07;;;;;;;13.43;2.70;;;;;;;16.30;71.32;101600.00;5075728;28;20020;-35
2021/08/26 07:20:33;;;;;;;;;;;;;;;16.41;71.54;101592.78;5075791;28;20032;-35
2021/08/26 07:22:58;;;;;;;11.35;3.00;;;;;;;16.31;71.63;101581.72;5075298;28;20344;-35
2021/08/26 07:25:23;;;;;;;15.77;2.95;;;;;;;16.39;71.28;101573.09;5075832;28;20432;-35
2021/08/26 07:27:49;;;;;;;8.07;2.60;;;;;;;16.48;70.15;101577.88;5075569;28;20032;-35
2021/08/26 07:30:14;;;;;;;11.57;2.80;;;;;;;16.58;70.48;101596.28;5075331;28;20032;-35
2021/08/26 07:32:40;;;;;;;9.40;2.70;;;;;;;16.67;70.11;101585.75;5075703;28;20259;-35
2021/08/26 07:35:06;;;;;;;10.93;2.72;;;;;;;16.67;68.49;101581.13;5075044;28;20016;-35
2021/08/26 07:37:31;;;;;;;;;;;;;;;16.78;69.53;101590.28;5075914;28;20032;-36
2021/08/26 07:39:56;;;;;;;10.67;2.33;;;;;;;16.71;68.46;101587.75;5075298;28;19904;-35
2021/08/26 07:42:22;;;;;;;10.47;2.27;;;;;;;16.70;69.05;101591.53;5075485;28;20262;-35
2021/08/26 07:44:47;;;;;;;7.60;2.13;;;;;;;16.73;68.67;101588.31;5074902;28;20267;-35
2021/08/26 07:47:12;;;;;;;;;;;;;;;16.85;68.93;101588.22;5075820;28;20031;-35
2021/08/26 07:49:38;;;;;;;7.22;1.95;;;;;;;16.79;69.23;101582.91;5074516;28;19908;-35
2021/08/26 07:52:03;;;;;;;8.65;2.08;;;;;;;16.88;69.10;101589.59;5075246;28;20020;-35
2021/08/26 07:54:29;;;;;;;;;;;;;;;16.99;68.80;101581.28;5075075;28;20364;-35
2021/08/26 07:56:54;;;;;;;8.55;1.90;;;;;;;16.88;67.26;101582.22;5074911;28;19904;-35
2021/08/26 07:59:19;;;;;;;;;;;;;;;16.95;68.35;101585.59;5075538;28;20448;-35
2021/08/26 08:01:45;;;;;;;8.40;2.27;;;;;;;16.89;68.12;101585.81;5075141;28;20325;-35
2021/08/26 08:04:10;;;;;;;7.77;2.20;;;;;;;16.95;68.13;101587.50;5074504;28;20745;-35
2021/08/26 08:06:35;;;;;;;12.80;2.30;;;;;;;17.01;67.95;101586.47;5074763;28;20262;-35
2021/08/26 08:09:01;;;;;;;10.38;2.50;;;;;;;17.05;67.18;101565.75;5074835;28;20735;-35
2021/08/26 08:11:26;;;;;;;;;;;;;;;17.27;67.64;101573.91;5075175;28;20367;-35
2021/08/26 08:13:52;;;;;;;9.18;2.45;;;;;;;17.16;67.39;101566.69;5074318;28;19904;-35
2021/08/26 08:16:17;;;;;;;11.90;2.47;;;;;;;17.18;67.54;101573.56;5074888;28;20028;-35
2021/08/26 08:18:43;;;;;;;12.18;2.50;;;;;;;17.13;67.78;101570.78;5074322;28;20112;-35
2021/08/26 08:21:08;;;;;;;;;;;;;;;17.24;67.55;101578.00;5075223;28;20032;-35
2021/08/26 08:23:33;;;;;;;12.47;2.23;;;;;;;17.06;68.02;101578.34;5073975;28;19967;-35
2021/08/26 08:25:58;;;;;;;;;;;;;;;17.10;67.91;101571.28;5074356;28;20534;-35
2021/08/26 08:28:24;;;;;;;11.70;2.30;;;;;;;16.95;68.00;101573.84;5073364;28;19940;-35
2021/08/26 08:30:49;;;;;;;6.72;1.92;;;;;;;16.99;68.33;101573.06;5073738;28;20679;-35
2021/08/26 08:33:15;;;;;;;;;;;;;;;17.15;68.26;101576.78;5074345;28;20103;-35
2021/08/26 08:35:40;;;;;;;8.80;1.90;;;;;;;17.01;66.47;101558.34;5073919;28;19915;-35
2021/08/26 08:38:06;;;;;;;;;;;;;;;17.25;66.84;101574.16;5074763;28;20029;-35
2021/08/26 08:40:32;;;;;;;7.18;2.03;;;;;;;17.16;66.16;101562.03;5074497;28;19904;-35
2021/08/26 08:43:01;;;;;;;6.38;2.42;;;;;;;17.27;67.38;101562.16;5073771;28;20029;-35
2021/08/26 08:45:26;;;;;;;13.63;2.72;;;;;;;17.30;66.94;101551.53;5073988;28;20386;-35
2021/08/26 08:47:52;;;;;;;12.02;2.83;;;;;;;17.57;67.72;101573.38;5073948;28;20025;-35
2021/08/26 08:50:24;;;;;;;;;;;;;;;17.73;67.35;101568.91;5074001;28;20021;-35
2021/08/26 08:52:51;;;;;;;12.90;2.97;;;;;;;17.47;66.76;101565.91;5073308;28;20352;-35
2021/08/26 08:55:19;;;;;;;8.88;2.08;;;;;;;17.49;66.53;101568.38;5073487;28;20027;-35
2021/08/26 08:57:45;;;;;;;9.02;2.05;;;;;;;17.31;66.63;101560.53;5073552;28;20024;-36
2021/08/26 09:00:14;;;;;;;7.90;2.17;;;;;;;17.19;67.53;101569.75;5073385;28;20367;-36
2021/08/26 09:02:40;;;;;;;11.93;2.80;;;;;;;17.19;67.65;101567.00;5073384;28;20024;-35
2021/08/26 09:05:06;;;;;;;7.20;2.10;;;;;;;17.04;67.66;101563.28;5073293;28;20028;-35
2021/08/26 09:07:32;;;;;;;;;;;;;;;17.18;68.09;101570.81;5073818;28;20052;-35
2021/08/26 09:09:58;;;;;;;9.55;1.92;;;;;;;16.95;67.43;101565.66;5073212;28;19913;-35
2021/08/26 09:12:45;;;;;;;8.50;2.03;;;;;;;16.90;68.29;101563.69;5073498;28;20383;-35
2021/08/26 09:15:12;;;;;;;9.43;2.45;;;;;;;16.87;69.88;101566.09;5073557;28;20391;-35
2021/08/26 09:17:38;;;;;;;11.38;2.70;;;;;;;16.92;70.39;101574.34;5073410;28;20056;-35
2021/08/26 09:20:05;;;;;;;8.13;2.25;;;;;;;16.85;70.50;101562.81;5073045;28;20110;-35
2021/08/26 09:22:31;;;;;;;5.20;1.42;;;;;;;16.82;68.73;101575.06;5073538;28;20028;-35
2021/08/26 09:24:57;;;;;;;6.28;1.90;;;;;;;16.89;68.82;101558.47;5073121;28;20083;-35
2021/08/26 09:27:35;;;;;;;;;;;;;;;16.97;68.69;101564.28;5073977;28;20025;-35
2021/08/26 09:30:18;;;;;;;7.72;1.88;;;;;;;16.75;69.11;101559.94;5072773;28;20494;-35
2021/08/26 09:32:46;;;;;;;10.73;2.08;;;;;;;16.64;69.57;101546.16;5073731;28;20032;-35
2021/08/26 09:35:21;;;;;;;10.48;2.00;;;;;;;16.83;70.03;101563.03;5072933;28;20036;-35
2021/08/26 09:37:52;;;;;;;7.53;1.90;;;;;;;17.01;68.74;101563.78;5073257;28;20024;-35
2021/08/26 09:40:22;;;;;;;3.38;1.40;;;;;;;17.18;68.45;101565.34;5071601;28;20425;-35
2021/08/26 09:43:14;;;;;;;3.85;1.10;;;;;;;17.48;67.96;101562.09;5073384;28;20028;-35
2021/08/26 09:45:46;;;;;;;5.43;1.40;;;;;;;17.47;66.26;101544.03;5070050;28;20062;-35
2021/08/26 09:48:13;;;;;;;5.82;1.85;;;;;;;17.61;65.60;101558.09;5073196;28;20413;-35
2021/08/26 09:50:49;;;;;;;4.45;1.05;;;;;;;17.81;65.63;101562.09;5073183;28;20020;-36
2021/08/26 09:53:33;;;;;;;3.88;1.23;;;;;;;17.92;65.65;101569.31;5072844;28;20031;-35
2021/08/26 09:56:05;;;;;;;4.32;1.20;;;;;;;18.09;65.04;101567.22;5073222;28;20032;-36
2021/08/26 09:58:35;;;;;;;4.93;1.40;;;;;;;18.24;63.03;101569.25;5073332;28;20338;-35
2021/08/26 10:01:27;;;;;;;5.53;1.30;;;;;;;18.26;64.40;101569.81;5072646;28;20036;-36
2021/08/26 10:03:52;;;;;;;5.95;1.23;;;;;;;18.30;62.42;101559.16;5069911;28;20041;-35
2021/08/26 10:06:18;;;;;;;6.97;1.67;;;;;;;18.18;63.30;101560.19;5072440;28;20028;-35
2021/08/26 10:08:46;;;;;;;8.23;1.58;;;;;;;18.25;63.67;101566.25;5072825;28;20083;-35
2021/08/26 10:11:15;;;;;;;4.78;1.45;;;;;;;18.35;63.24;101556.44;5073110;28;20021;-35
2021/08/26 10:13:41;;;;;;;4.70;1.60;;;;;;;18.31;64.04;101547.13;5072548;28;20032;-35
2021/08/26 10:16:07;;;;;;;;;;;;;;;18.63;64.47;101557.94;5073253;28;20555;-35
2021/08/26 10:18:35;;;;;;;5.55;1.40;;;;;;;18.54;64.05;101565.84;5072272;28;19904;-35
2021/08/26 10:21:00;;;;;;;6.75;1.52;;;;;;;18.62;63.19;101573.56;5072701;28;20028;-35
2021/08/26 10:23:26;;;;;;;;;;;;;;;18.81;63.90;101567.66;5073308;28;20020;-35
2021/08/26 10:25:54;;;;;;;6.03;1.50;;;;;;;18.66;64.01;101562.91;5072553;28;19908;-35
2021/08/26 10:28:21;;;;;;;7.32;1.88;;;;;;;18.56;63.90;101555.47;5072733;28;20401;-35
2021/08/26 10:30:46;;;;;;;4.60;1.48;;;;;;;18.47;64.57;101566.09;5072560;28;20027;-35
2021/08/26 10:33:20;;;;;;;;;;;;;;;18.62;64.73;101573.56;5072921;28;20024;-36
2021/08/26 10:35:52;;;;;;;5.40;1.73;;;;;;;18.26;67.28;101572.56;5072990;28;19905;-35
2021/08/26 10:38:22;;;;;;;5.28;1.70;;;;;;;17.95;69.21;101579.72;5072646;28;20029;-35
2021/08/26 10:40:49;;;;;;;10.55;1.90;;;;;;;17.86;71.41;101565.72;5072957;28;20333;-35
2021/08/26 10:43:38;;;;;;;5.07;1.85;;;;;;;17.80;70.82;101572.22;5072903;28;20110;-35
2021/08/26 10:46:07;;;;;;;5.80;2.15;;;;;;;17.54;72.59;101573.91;5072586;28;20530;-36
2021/08/26 10:48:33;;;;;;;8.50;2.22;;;;;;;17.56;72.29;101573.63;5072166;28;20025;-35
2021/08/26 10:51:04;;;;;;;4.97;1.70;;;;;;;17.48;72.90;101570.28;5073619;28;20024;-35
2021/08/26 10:53:32;;;;;;;7.75;1.77;;;;;;;17.61;72.17;101584.63;5075592;28;20047;-35
2021/08/26 10:56:13;;;;;;;6.55;2.35;;;;;;;17.53;73.85;101574.16;5075846;28;20456;-36
2021/08/26 10:58:39;;;;;;;6.70;1.42;;;;;;;17.65;70.94;101581.09;5076122;28;20115;-35
2021/08/26 11:01:05;;;;;;;;;;;;;;;17.90;70.94;101583.25;5075821;28;20028;-35
2021/08/26 11:03:34;;;;;;;5.88;1.73;;;;;;;18.04;69.52;101578.16;5075937;28;19915;-35
2021/08/26 11:06:20;;;;;;;4.97;1.80;;;;;;;18.16;68.25;101581.53;5076143;28;20036;-35
2021/08/26 11:08:55;;;;;;;5.18;1.30;;;;;;;18.16;65.80;101565.09;5065240;28;20049;-35
2021/08/26 11:11:27;;;;;;;6.35;1.85;;;;;;;18.15;65.93;101568.91;5075560;28;20101;-35
2021/08/26 11:13:59;;;;;;;6.20;2.10;;;;;;;18.30;65.81;101576.41;5075489;28;20028;-35
2021/08/26 11:16:24;;;;;;;5.90;1.88;;;;;;;18.28;64.80;101581.31;5075494;28;20058;-35
2021/08/26 11:18:51;;;;;;;6.63;2.00;;;;;;;18.33;65.44;101575.88;5075438;28;20020;-35
2021/08/26 11:24:14;;;;;;;7.65;2.10;;;;;;;18.51;66.16;101569.13;5067786;28;20115;-35
2021/08/26 11:26:55;;;;;;;4.72;2.08;;;;;;;18.61;65.52;101566.44;5075128;28;20021;-36
2021/08/26 11:29:20;;;;;;;5.93;2.10;;;;;;;18.82;64.33;101572.03;5075613;28;20024;-36
2021/08/26 11:31:54;;;;;;;;;;;;;;;18.98;65.25;101571.81;5075820;28;20433;-36
2021/08/26 11:34:35;;;;;;;9.15;2.45;;;;;;;18.91;64.58;101559.47;5075427;28;19908;-36
2021/08/26 11:37:06;;;;;;;5.18;1.83;;;;;;;18.88;64.40;101562.72;5075146;28;20035;-36